GRF9344 EDDH-RJBB
Flight info
| Callsign | GRF9344 |
|---|---|
| Flight time | N/A |
| Altitude | 30000 |
| Route | SOKWO1G SOKWO T814 EXNEL DCT GIKOG DCT ATTUS P992 BAVTA M609 SVA M604 INPAR DCT 80N014E 82N014E/M083F300 85N014E DCT NOPOL DCT 85N157W 80N157W/N0477F300 75N157W DCT BRW J123 OME R338 NATES R220 IXE Y88 NAKTU Y12 KOHWA Y544 DUBKA |
| Aircraft | A346/H-SDE2E3FGHIJ3J4J5M1RWXYZ/LB1D1 |
Departure
| Time | 2026-04-24 20:56 |
|---|---|
| Airport | Hamburg Helmut Schmidt Airport (EDDH) |
Arrival
| Time | N/A |
|---|---|
| Airport | Kansai International Airport (RJBB) |
| Time | Latitude | Longitude | Altitude | Speed | Heading |
|---|---|---|---|---|---|
| 2026-04-24 19:56 | 53.63019 | 10.00328 | 59 ft | 0 kts | 122° |
| 2026-04-24 19:59 | 53.63011 | 10.00350 | 55 ft | 0 kts | 122° |
| 2026-04-24 19:59 | 53.63002 | 10.00374 | 54 ft | 0 kts | 122° |
| 2026-04-24 19:59 | 53.63016 | 10.00336 | 59 ft | 0 kts | 122° |
| 2026-04-24 20:45 | 53.63026 | 10.00311 | 50 ft | 4 kts | 122° |
| 2026-04-24 20:46 | 53.63040 | 10.00272 | 50 ft | 4 kts | 122° |
| 2026-04-24 20:46 | 53.63051 | 10.00243 | 50 ft | 4 kts | 130° |
| 2026-04-24 20:46 | 53.63065 | 10.00225 | 50 ft | 4 kts | 167° |
| 2026-04-24 20:46 | 53.63072 | 10.00225 | 50 ft | 3 kts | 212° |
| 2026-04-24 20:47 | 53.63070 | 10.00224 | 50 ft | 1 kts | 212° |
| 2026-04-24 20:49 | 53.63070 | 10.00223 | 50 ft | 0 kts | 212° |
| 2026-04-24 20:49 | 53.63063 | 10.00216 | 50 ft | 3 kts | 212° |
| 2026-04-24 20:50 | 53.63029 | 10.00179 | 50 ft | 8 kts | 212° |
| 2026-04-24 20:50 | 53.62969 | 10.00114 | 52 ft | 12 kts | 213° |
| 2026-04-24 20:50 | 53.62893 | 10.00056 | 54 ft | 12 kts | 179° |
| 2026-04-24 20:50 | 53.62808 | 10.00110 | 51 ft | 13 kts | 156° |
| 2026-04-24 20:51 | 53.62721 | 10.00179 | 52 ft | 14 kts | 154° |
| 2026-04-24 20:51 | 53.62632 | 10.00254 | 51 ft | 12 kts | 162° |
| 2026-04-24 20:51 | 53.62566 | 10.00198 | 50 ft | 12 kts | 235° |
| 2026-04-24 20:51 | 53.62524 | 10.00065 | 51 ft | 4 kts | 260° |
| 2026-04-24 20:52 | 53.62543 | 10.00027 | 53 ft | 5 kts | 330° |
| 2026-04-24 20:52 | 53.62548 | 10.00022 | 54 ft | 0 kts | 330° |
| 2026-04-24 20:55 | 53.62565 | 10.00007 | 47 ft | 13 kts | 331° |
| 2026-04-24 20:55 | 53.62833 | 9.99770 | 50 ft | 75 kts | 333° |
| 2026-04-24 20:55 | 53.63479 | 9.99210 | 54 ft | 131 kts | 333° |
| 2026-04-24 20:55 | 53.64449 | 9.98377 | 55 ft | 177 kts | 333° |
| 2026-04-24 20:56 | 53.65598 | 9.97384 | 475 ft | 183 kts | 329° |
| 2026-04-24 20:56 | 53.66682 | 9.96397 | 1424 ft | 169 kts | 328° |
| 2026-04-24 20:56 | 53.67676 | 9.95452 | 2222 ft | 160 kts | 330° |
| 2026-04-24 20:56 | 53.68703 | 9.94666 | 2563 ft | 168 kts | 342° |
| 2026-04-24 20:57 | 53.69907 | 9.94460 | 2861 ft | 178 kts | 356° |
| 2026-04-24 20:57 | 53.71162 | 9.94503 | 3284 ft | 181 kts | 358° |
| 2026-04-24 20:57 | 53.72457 | 9.94637 | 3496 ft | 199 kts | 5° |
| 2026-04-24 20:57 | 53.73877 | 9.95249 | 3607 ft | 222 kts | 18° |
| 2026-04-24 20:58 | 53.75315 | 9.96605 | 3728 ft | 247 kts | 28° |
| 2026-04-24 20:58 | 53.76781 | 9.98292 | 4042 ft | 261 kts | 31° |
| 2026-04-24 20:58 | 53.78253 | 10.00096 | 4580 ft | 264 kts | 31° |
| 2026-04-24 20:58 | 53.79743 | 10.01978 | 5258 ft | 263 kts | 32° |
| 2026-04-24 20:59 | 53.81184 | 10.03831 | 5888 ft | 262 kts | 30° |
| 2026-04-24 20:59 | 53.82835 | 10.04973 | 6358 ft | 257 kts | 1° |
| 2026-04-24 20:59 | 53.84618 | 10.05056 | 6903 ft | 256 kts | 356° |
| 2026-04-24 20:59 | 53.86413 | 10.05034 | 7452 ft | 258 kts | 356° |
| 2026-04-24 21:00 | 53.88227 | 10.05068 | 7991 ft | 260 kts | 358° |
| 2026-04-24 21:00 | 53.90018 | 10.05157 | 8535 ft | 261 kts | 358° |
| 2026-04-24 21:00 | 53.91846 | 10.05286 | 9080 ft | 263 kts | 359° |
| 2026-04-24 21:00 | 53.93688 | 10.05442 | 9616 ft | 265 kts | 359° |
| 2026-04-24 21:01 | 53.95532 | 10.05617 | 10130 ft | 267 kts | 359° |
| 2026-04-24 21:01 | 53.97402 | 10.05804 | 10499 ft | 274 kts | 359° |
| 2026-04-24 21:01 | 53.99349 | 10.06002 | 10711 ft | 286 kts | 359° |
| 2026-04-24 21:01 | 54.01372 | 10.06214 | 10935 ft | 297 kts | 359° |
| 2026-04-24 21:02 | 54.03478 | 10.06441 | 11149 ft | 309 kts | 360° |
| 2026-04-24 21:02 | 54.05637 | 10.06678 | 11372 ft | 321 kts | 360° |
| 2026-04-24 21:02 | 54.07916 | 10.06931 | 11601 ft | 334 kts | 360° |
| 2026-04-24 21:02 | 54.10285 | 10.07195 | 11817 ft | 346 kts | 0° |
| 2026-04-24 21:03 | 54.12726 | 10.07469 | 12066 ft | 357 kts | 0° |
| 2026-04-24 21:03 | 54.15227 | 10.07752 | 12504 ft | 362 kts | 0° |
| 2026-04-24 21:03 | 54.17751 | 10.08042 | 13071 ft | 364 kts | 0° |
| 2026-04-24 21:03 | 54.20292 | 10.08333 | 13606 ft | 367 kts | 0° |
| 2026-04-24 21:04 | 54.22829 | 10.08623 | 14084 ft | 370 kts | 360° |
| 2026-04-24 21:04 | 54.25406 | 10.08917 | 14545 ft | 373 kts | 360° |
| 2026-04-24 21:04 | 54.28014 | 10.09214 | 14981 ft | 376 kts | 360° |
| 2026-04-24 21:04 | 54.30645 | 10.09514 | 15427 ft | 379 kts | 360° |